sensor_id;sensor_type;location;lat;lon;timestamp;pressure;altitude;pressure_sealevel;temperature;humidity
60015;BME280;45867;52.480;6.056;2023-03-21T00:01:54;101599.63;;;8.45;100.00
60015;BME280;45867;52.480;6.056;2023-03-21T00:04:21;101605.38;;;8.54;100.00
60015;BME280;45867;52.480;6.056;2023-03-21T00:06:46;101585.06;;;8.42;100.00
60015;BME280;45867;52.480;6.056;2023-03-21T00:09:11;101610.56;;;8.49;100.00
60015;BME280;45867;52.480;6.056;2023-03-21T00:11:37;101595.88;;;8.41;100.00
60015;BME280;45867;52.480;6.056;2023-03-21T00:14:02;101605.50;;;8.47;100.00
60015;BME280;45867;52.480;6.056;2023-03-21T00:16:28;101593.81;;;8.43;100.00
60015;BME280;45867;52.480;6.056;2023-03-21T00:18:55;101604.44;;;8.48;100.00
60015;BME280;45867;52.480;6.056;2023-03-21T00:21:22;101597.69;;;8.52;100.00
60015;BME280;45867;52.480;6.056;2023-03-21T00:23:56;101604.69;;;8.47;100.00
60015;BME280;45867;52.480;6.056;2023-03-21T00:26:22;101597.00;;;8.57;100.00
60015;BME280;45867;52.480;6.056;2023-03-21T00:28:47;101592.63;;;8.51;100.00
60015;BME280;45867;52.480;6.056;2023-03-21T00:31:13;101588.59;;;8.48;100.00
60015;BME280;45867;52.480;6.056;2023-03-21T00:33:39;101581.94;;;8.45;100.00
60015;BME280;45867;52.480;6.056;2023-03-21T00:36:05;101592.41;;;8.52;100.00
60015;BME280;45867;52.480;6.056;2023-03-21T00:38:31;101584.94;;;8.49;100.00
60015;BME280;45867;52.480;6.056;2023-03-21T00:40:56;101584.47;;;8.52;100.00
60015;BME280;45867;52.480;6.056;2023-03-21T00:43:22;101584.69;;;8.51;100.00
60015;BME280;45867;52.480;6.056;2023-03-21T00:45:54;101576.44;;;8.47;100.00
60015;BME280;45867;52.480;6.056;2023-03-21T00:48:20;101576.22;;;8.49;100.00
60015;BME280;45867;52.480;6.056;2023-03-21T00:50:45;101574.97;;;8.51;100.00
60015;BME280;45867;52.480;6.056;2023-03-21T00:53:11;101569.19;;;8.54;100.00
60015;BME280;45867;52.480;6.056;2023-03-21T00:55:37;101566.88;;;8.58;100.00
60015;BME280;45867;52.480;6.056;2023-03-21T00:58:05;101565.50;;;8.55;100.00
60015;BME280;45867;52.480;6.056;2023-03-21T01:00:31;101559.31;;;8.50;100.00
60015;BME280;45867;52.480;6.056;2023-03-21T01:02:58;101553.38;;;8.42;100.00
60015;BME280;45867;52.480;6.056;2023-03-21T01:05:35;101550.34;;;8.51;100.00
60015;BME280;45867;52.480;6.056;2023-03-21T01:08:21;101550.03;;;8.47;100.00
60015;BME280;45867;52.480;6.056;2023-03-21T01:10:49;101545.22;;;8.44;100.00
60015;BME280;45867;52.480;6.056;2023-03-21T01:13:16;101546.81;;;8.45;100.00
60015;BME280;45867;52.480;6.056;2023-03-21T01:15:44;101544.28;;;8.38;100.00
60015;BME280;45867;52.480;6.056;2023-03-21T01:18:10;101552.81;;;8.40;100.00
60015;BME280;45867;52.480;6.056;2023-03-21T01:20:36;101531.78;;;8.34;100.00
60015;BME280;45867;52.480;6.056;2023-03-21T01:23:01;101527.53;;;8.33;100.00
60015;BME280;45867;52.480;6.056;2023-03-21T01:25:27;101546.13;;;8.38;100.00
60015;BME280;45867;52.480;6.056;2023-03-21T01:27:52;101541.66;;;8.38;100.00
60015;BME280;45867;52.480;6.056;2023-03-21T01:30:19;101542.13;;;8.35;100.00
60015;BME280;45867;52.480;6.056;2023-03-21T01:32:45;101534.88;;;8.42;100.00
60015;BME280;45867;52.480;6.056;2023-03-21T01:35:10;101543.97;;;8.35;100.00
60015;BME280;45867;52.480;6.056;2023-03-21T01:37:36;101531.31;;;8.37;100.00
60015;BME280;45867;52.480;6.056;2023-03-21T01:40:02;101536.84;;;8.35;100.00
60015;BME280;45867;52.480;6.056;2023-03-21T01:42:29;101533.63;;;8.33;100.00
60015;BME280;45867;52.480;6.056;2023-03-21T01:44:57;101530.06;;;8.39;100.00
60015;BME280;45867;52.480;6.056;2023-03-21T01:47:24;101530.50;;;8.36;100.00
60015;BME280;45867;52.480;6.056;2023-03-21T01:49:53;101525.56;;;8.40;100.00
60015;BME280;45867;52.480;6.056;2023-03-21T01:52:23;101527.75;;;8.31;100.00
60015;BME280;45867;52.480;6.056;2023-03-21T01:54:52;101519.63;;;8.33;100.00
60015;BME280;45867;52.480;6.056;2023-03-21T01:57:37;101525.56;;;8.40;100.00
60015;BME280;45867;52.480;6.056;2023-03-21T02:00:06;101518.34;;;8.35;100.00
60015;BME280;45867;52.480;6.056;2023-03-21T02:02:39;101520.06;;;8.41;100.00
60015;BME280;45867;52.480;6.056;2023-03-21T02:05:29;101519.94;;;8.36;100.00
60015;BME280;45867;52.480;6.056;2023-03-21T02:07:58;101510.44;;;8.35;100.00
60015;BME280;45867;52.480;6.056;2023-03-21T02:10:24;101506.16;;;8.34;100.00
60015;BME280;45867;52.480;6.056;2023-03-21T02:12:51;101509.06;;;8.33;100.00
60015;BME280;45867;52.480;6.056;2023-03-21T02:15:19;101498.13;;;8.29;100.00
60015;BME280;45867;52.480;6.056;2023-03-21T02:17:52;101502.72;;;8.34;100.00
60015;BME280;45867;52.480;6.056;2023-03-21T02:26:16;101476.31;;;8.34;100.00
60015;BME280;45867;52.480;6.056;2023-03-21T02:28:51;101485.28;;;8.33;100.00
60015;BME280;45867;52.480;6.056;2023-03-21T02:31:54;101471.28;;;8.32;100.00
60015;BME280;45867;52.480;6.056;2023-03-21T02:42:16;101463.81;;;8.29;100.00
60015;BME280;45867;52.480;6.056;2023-03-21T02:44:46;101462.53;;;8.32;100.00
60015;BME280;45867;52.480;6.056;2023-03-21T02:50:32;101454.78;;;8.25;100.00
60015;BME280;45867;52.480;6.056;2023-03-21T02:53:01;101457.97;;;8.27;100.00
60015;BME280;45867;52.480;6.056;2023-03-21T02:55:30;101455.56;;;8.26;100.00
60015;BME280;45867;52.480;6.056;2023-03-21T02:57:57;101435.06;;;8.16;100.00
60015;BME280;45867;52.480;6.056;2023-03-21T03:00:29;101451.09;;;8.26;100.00
60015;BME280;45867;52.480;6.056;2023-03-21T03:02:55;101438.34;;;8.23;100.00
60015;BME280;45867;52.480;6.056;2023-03-21T03:05:23;101445.81;;;8.26;100.00
60015;BME280;45867;52.480;6.056;2023-03-21T03:08:09;101441.78;;;8.23;100.00
60015;BME280;45867;52.480;6.056;2023-03-21T03:11:01;101443.25;;;8.31;100.00
60015;BME280;45867;52.480;6.056;2023-03-21T03:16:36;101441.09;;;8.28;100.00
60015;BME280;45867;52.480;6.056;2023-03-21T03:19:07;101439.72;;;8.26;100.00
60015;BME280;45867;52.480;6.056;2023-03-21T03:21:42;101437.75;;;8.33;100.00
60015;BME280;45867;52.480;6.056;2023-03-21T03:26:47;101435.34;;;8.31;100.00
60015;BME280;45867;52.480;6.056;2023-03-21T03:29:17;101433.97;;;8.29;100.00
60015;BME280;45867;52.480;6.056;2023-03-21T03:34:26;101417.94;;;8.18;100.00
60015;BME280;45867;52.480;6.056;2023-03-21T03:36:56;101437.66;;;8.28;100.00
60015;BME280;45867;52.480;6.056;2023-03-21T03:39:26;101440.28;;;8.39;100.00
60015;BME280;45867;52.480;6.056;2023-03-21T03:42:03;101419.97;;;8.28;100.00
60015;BME280;45867;52.480;6.056;2023-03-21T03:44:29;101417.31;;;8.28;100.00
60015;BME280;45867;52.480;6.056;2023-03-21T03:47:00;101419.00;;;8.34;100.00
60015;BME280;45867;52.480;6.056;2023-03-21T03:49:36;101426.63;;;8.31;100.00
60015;BME280;45867;52.480;6.056;2023-03-21T03:52:11;101412.53;;;8.25;100.00
60015;BME280;45867;52.480;6.056;2023-03-21T03:54:41;101420.22;;;8.27;100.00
60015;BME280;45867;52.480;6.056;2023-03-21T03:57:08;101410.81;;;8.19;100.00
60015;BME280;45867;52.480;6.056;2023-03-21T03:59:36;101411.84;;;8.18;100.00
60015;BME280;45867;52.480;6.056;2023-03-21T04:02:02;101413.88;;;8.28;100.00
60015;BME280;45867;52.480;6.056;2023-03-21T04:04:28;101404.28;;;8.21;100.00
60015;BME280;45867;52.480;6.056;2023-03-21T04:06:54;101417.22;;;8.23;100.00
60015;BME280;45867;52.480;6.056;2023-03-21T04:09:20;101409.00;;;8.19;100.00
60015;BME280;45867;52.480;6.056;2023-03-21T04:11:45;101408.03;;;8.26;100.00
60015;BME280;45867;52.480;6.056;2023-03-21T04:14:11;101410.09;;;8.23;100.00
60015;BME280;45867;52.480;6.056;2023-03-21T04:16:36;101406.56;;;8.18;100.00
60015;BME280;45867;52.480;6.056;2023-03-21T04:19:02;101411.94;;;8.23;100.00
60015;BME280;45867;52.480;6.056;2023-03-21T04:21:28;101407.94;;;8.20;100.00
60015;BME280;45867;52.480;6.056;2023-03-21T04:23:54;101411.63;;;8.19;100.00
60015;BME280;45867;52.480;6.056;2023-03-21T04:26:22;101410.03;;;8.18;100.00
60015;BME280;45867;52.480;6.056;2023-03-21T04:28:49;101406.34;;;8.19;100.00
60015;BME280;45867;52.480;6.056;2023-03-21T04:31:14;101405.56;;;8.19;100.00
60015;BME280;45867;52.480;6.056;2023-03-21T04:33:41;101409.47;;;8.16;100.00
60015;BME280;45867;52.480;6.056;2023-03-21T04:36:10;101404.19;;;8.16;100.00
60015;BME280;45867;52.480;6.056;2023-03-21T04:38:48;101404.97;;;8.17;100.00
60015;BME280;45867;52.480;6.056;2023-03-21T04:41:13;101401.06;;;8.19;100.00
60015;BME280;45867;52.480;6.056;2023-03-21T04:43:39;101395.53;;;8.21;100.00
60015;BME280;45867;52.480;6.056;2023-03-21T04:46:05;101392.91;;;8.21;100.00
60015;BME280;45867;52.480;6.056;2023-03-21T04:48:30;101388.91;;;8.18;100.00
60015;BME280;45867;52.480;6.056;2023-03-21T04:50:56;101391.78;;;8.17;100.00
60015;BME280;45867;52.480;6.056;2023-03-21T04:53:21;101389.22;;;8.22;100.00
60015;BME280;45867;52.480;6.056;2023-03-21T04:55:46;101388.91;;;8.18;100.00
60015;BME280;45867;52.480;6.056;2023-03-21T04:58:12;101384.09;;;8.15;100.00
60015;BME280;45867;52.480;6.056;2023-03-21T05:00:37;101380.31;;;8.11;100.00
60015;BME280;45867;52.480;6.056;2023-03-21T05:03:15;101391.56;;;8.18;100.00
60015;BME280;45867;52.480;6.056;2023-03-21T05:05:51;101386.97;;;8.14;100.00
60015;BME280;45867;52.480;6.056;2023-03-21T05:08:16;101383.44;;;8.08;100.00
60015;BME280;45867;52.480;6.056;2023-03-21T05:10:42;101391.94;;;8.10;100.00
60015;BME280;45867;52.480;6.056;2023-03-21T05:13:07;101389.84;;;8.12;100.00
60015;BME280;45867;52.480;6.056;2023-03-21T05:15:33;101394.09;;;8.13;100.00
60015;BME280;45867;52.480;6.056;2023-03-21T05:17:58;101387.28;;;8.17;100.00
60015;BME280;45867;52.480;6.056;2023-03-21T05:20:24;101390.63;;;8.13;100.00
60015;BME280;45867;52.480;6.056;2023-03-21T05:22:50;101388.25;;;8.11;100.00
60015;BME280;45867;52.480;6.056;2023-03-21T05:25:16;101382.97;;;8.11;100.00
60015;BME280;45867;52.480;6.056;2023-03-21T05:27:45;101389.50;;;8.09;100.00
60015;BME280;45867;52.480;6.056;2023-03-21T05:30:18;101391.56;;;8.07;100.00
60015;BME280;45867;52.480;6.056;2023-03-21T05:32:44;101390.31;;;8.09;100.00
60015;BME280;45867;52.480;6.056;2023-03-21T05:35:10;101387.91;;;8.08;100.00
60015;BME280;45867;52.480;6.056;2023-03-21T05:37:35;101391.34;;;8.08;100.00
60015;BME280;45867;52.480;6.056;2023-03-21T05:40:03;101383.91;;;8.05;100.00
60015;BME280;45867;52.480;6.056;2023-03-21T05:42:30;101381.75;;;8.02;100.00
60015;BME280;45867;52.480;6.056;2023-03-21T05:44:56;101383.00;;;7.99;100.00
60015;BME280;45867;52.480;6.056;2023-03-21T05:47:21;101393.31;;;8.01;100.00
60015;BME280;45867;52.480;6.056;2023-03-21T05:49:46;101387.81;;;8.03;100.00
60015;BME280;45867;52.480;6.056;2023-03-21T05:52:12;101378.75;;;7.98;100.00
60015;BME280;45867;52.480;6.056;2023-03-21T05:54:37;101392.31;;;8.02;100.00
60015;BME280;45867;52.480;6.056;2023-03-21T05:57:03;101392.19;;;7.97;100.00
60015;BME280;45867;52.480;6.056;2023-03-21T05:59:34;101387.47;;;7.99;100.00
60015;BME280;45867;52.480;6.056;2023-03-21T06:02:00;101390.09;;;7.99;100.00
60015;BME280;45867;52.480;6.056;2023-03-21T06:04:26;101394.94;;;8.02;100.00
60015;BME280;45867;52.480;6.056;2023-03-21T06:06:51;101391.47;;;8.01;100.00
60015;BME280;45867;52.480;6.056;2023-03-21T06:09:18;101374.41;;;7.92;100.00
60015;BME280;45867;52.480;6.056;2023-03-21T06:11:47;101392.75;;;7.99;100.00
60015;BME280;45867;52.480;6.056;2023-03-21T06:14:13;101393.09;;;8.03;100.00
60015;BME280;45867;52.480;6.056;2023-03-21T06:16:39;101383.81;;;8.00;100.00
60015;BME280;45867;52.480;6.056;2023-03-21T06:19:04;101369.38;;;7.91;100.00
60015;BME280;45867;52.480;6.056;2023-03-21T06:21:30;101377.84;;;7.93;100.00
60015;BME280;45867;52.480;6.056;2023-03-21T06:23:55;101388.28;;;7.99;100.00
60015;BME280;45867;52.480;6.056;2023-03-21T06:26:21;101392.75;;;7.99;100.00
60015;BME280;45867;52.480;6.056;2023-03-21T06:28:51;101384.97;;;7.92;100.00
60015;BME280;45867;52.480;6.056;2023-03-21T06:31:18;101384.97;;;7.92;100.00
60015;BME280;45867;52.480;6.056;2023-03-21T06:33:47;101390.34;;;7.97;100.00
60015;BME280;45867;52.480;6.056;2023-03-21T06:36:12;101390.56;;;7.96;100.00
60015;BME280;45867;52.480;6.056;2023-03-21T06:38:37;101384.19;;;7.92;100.00
60015;BME280;45867;52.480;6.056;2023-03-21T06:41:04;101389.78;;;7.95;100.00
60015;BME280;45867;52.480;6.056;2023-03-21T06:43:30;101379.59;;;7.87;100.00
60015;BME280;45867;52.480;6.056;2023-03-21T06:45:57;101375.22;;;7.93;100.00
60015;BME280;45867;52.480;6.056;2023-03-21T06:48:22;101388.72;;;7.96;100.00
60015;BME280;45867;52.480;6.056;2023-03-21T06:50:48;101388.50;;;7.98;100.00
60015;BME280;45867;52.480;6.056;2023-03-21T06:53:15;101400.44;;;8.00;100.00
60015;BME280;45867;52.480;6.056;2023-03-21T06:55:40;101387.63;;;7.92;100.00
60015;BME280;45867;52.480;6.056;2023-03-21T06:58:06;101383.59;;;7.90;100.00
60015;BME280;45867;52.480;6.056;2023-03-21T07:00:31;101395.63;;;7.97;100.00
60015;BME280;45867;52.480;6.056;2023-03-21T07:02:57;101385.09;;;7.97;100.00
60015;BME280;45867;52.480;6.056;2023-03-21T07:05:22;101392.75;;;7.99;100.00
60015;BME280;45867;52.480;6.056;2023-03-21T07:07:48;101400.88;;;8.09;100.00
60015;BME280;45867;52.480;6.056;2023-03-21T07:10:14;101398.56;;;8.13;100.00
60015;BME280;45867;52.480;6.056;2023-03-21T07:12:40;101376.53;;;8.07;100.00
60015;BME280;45867;52.480;6.056;2023-03-21T07:15:06;101394.31;;;8.12;100.00
60015;BME280;45867;52.480;6.056;2023-03-21T07:17:31;101396.59;;;8.20;100.00
60015;BME280;45867;52.480;6.056;2023-03-21T07:19:58;101383.53;;;8.13;100.00
60015;BME280;45867;52.480;6.056;2023-03-21T07:22:23;101382.25;;;8.16;100.00
60015;BME280;45867;52.480;6.056;2023-03-21T07:24:49;101370.56;;;8.12;100.00
60015;BME280;45867;52.480;6.056;2023-03-21T07:27:16;101370.56;;;8.12;100.00
60015;BME280;45867;52.480;6.056;2023-03-21T07:29:41;101383.97;;;8.22;100.00
60015;BME280;45867;52.480;6.056;2023-03-21T07:32:11;101394.25;;;8.23;100.00
60015;BME280;45867;52.480;6.056;2023-03-21T07:34:37;101386.59;;;8.22;100.00
60015;BME280;45867;52.480;6.056;2023-03-21T07:37:03;101388.97;;;8.23;100.00
60015;BME280;45867;52.480;6.056;2023-03-21T07:39:31;101387.06;;;8.19;100.00
60015;BME280;45867;52.480;6.056;2023-03-21T07:41:57;101389.22;;;8.22;100.00
60015;BME280;45867;52.480;6.056;2023-03-21T07:44:22;101392.66;;;8.22;100.00
60015;BME280;45867;52.480;6.056;2023-03-21T07:46:48;101387.88;;;8.19;100.00
60015;BME280;45867;52.480;6.056;2023-03-21T07:49:13;101394.59;;;8.27;100.00
60015;BME280;45867;52.480;6.056;2023-03-21T07:51:39;101379.94;;;8.19;100.00
60015;BME280;45867;52.480;6.056;2023-03-21T07:54:05;101387.38;;;8.22;100.00
60015;BME280;45867;52.480;6.056;2023-03-21T07:56:30;101369.28;;;8.14;100.00
60015;BME280;45867;52.480;6.056;2023-03-21T07:58:56;101380.53;;;8.21;100.00
60015;BME280;45867;52.480;6.056;2023-03-21T08:01:23;101381.00;;;8.18;100.00
60015;BME280;45867;52.480;6.056;2023-03-21T08:03:48;101387.50;;;8.28;100.00
60015;BME280;45867;52.480;6.056;2023-03-21T08:06:15;101387.22;;;8.29;100.00
60015;BME280;45867;52.480;6.056;2023-03-21T08:08:41;101380.94;;;8.30;100.00
60015;BME280;45867;52.480;6.056;2023-03-21T08:11:06;101386.06;;;8.37;100.00
60015;BME280;45867;52.480;6.056;2023-03-21T08:13:32;101372.22;;;8.30;100.00
60015;BME280;45867;52.480;6.056;2023-03-21T08:15:58;101370.94;;;8.32;100.00
60015;BME280;45867;52.480;6.056;2023-03-21T08:18:23;101362.41;;;8.42;100.00
60015;BME280;45867;52.480;6.056;2023-03-21T08:20:53;101384.78;;;8.51;100.00
60015;BME280;45867;52.480;6.056;2023-03-21T08:23:19;101384.50;;;8.53;100.00
60015;BME280;45867;52.480;6.056;2023-03-21T08:25:49;101372.69;;;8.55;100.00
60015;BME280;45867;52.480;6.056;2023-03-21T08:28:16;101361.44;;;8.48;100.00
60015;BME280;45867;52.480;6.056;2023-03-21T08:30:41;101370.19;;;8.49;100.00
60015;BME280;45867;52.480;6.056;2023-03-21T08:33:10;101371.56;;;8.51;100.00
60015;BME280;45867;52.480;6.056;2023-03-21T08:35:37;101362.50;;;8.47;100.00
60015;BME280;45867;52.480;6.056;2023-03-21T08:38:02;101374.84;;;8.58;100.00
60015;BME280;45867;52.480;6.056;2023-03-21T08:40:28;101358.97;;;8.58;100.00
60015;BME280;45867;52.480;6.056;2023-03-21T08:42:53;101360.34;;;8.61;100.00
60015;BME280;45867;52.480;6.056;2023-03-21T08:45:19;101354.59;;;8.64;100.00
60015;BME280;45867;52.480;6.056;2023-03-21T08:47:45;101360.75;;;8.70;100.00
60015;BME280;45867;52.480;6.056;2023-03-21T08:50:13;101351.72;;;8.65;100.00
60015;BME280;45867;52.480;6.056;2023-03-21T08:52:40;101349.22;;;8.59;100.00
60015;BME280;45867;52.480;6.056;2023-03-21T08:55:06;101348.91;;;8.72;100.00
60015;BME280;45867;52.480;6.056;2023-03-21T08:57:31;101345.63;;;8.82;100.00
60015;BME280;45867;52.480;6.056;2023-03-21T08:59:57;101342.50;;;8.85;100.00
60015;BME280;45867;52.480;6.056;2023-03-21T09:02:22;101346.81;;;8.91;100.00
60015;BME280;45867;52.480;6.056;2023-03-21T09:04:48;101344.09;;;8.86;100.00
60015;BME280;45867;52.480;6.056;2023-03-21T09:07:13;101337.53;;;8.88;100.00
60015;BME280;45867;52.480;6.056;2023-03-21T09:09:40;101345.59;;;8.99;100.00
60015;BME280;45867;52.480;6.056;2023-03-21T09:12:06;101343.16;;;8.92;100.00
60015;BME280;45867;52.480;6.056;2023-03-21T09:14:32;101344.16;;;8.91;100.00
60015;BME280;45867;52.480;6.056;2023-03-21T09:16:58;101341.84;;;8.95;100.00
60015;BME280;45867;52.480;6.056;2023-03-21T09:19:24;101332.31;;;8.94;100.00
60015;BME280;45867;52.480;6.056;2023-03-21T09:21:50;101332.78;;;9.07;100.00
60015;BME280;45867;52.480;6.056;2023-03-21T09:24:18;101332.53;;;9.09;100.00
60015;BME280;45867;52.480;6.056;2023-03-21T09:26:43;101341.16;;;9.21;100.00
60015;BME280;45867;52.480;6.056;2023-03-21T09:29:09;101330.53;;;9.38;100.00
60015;BME280;45867;52.480;6.056;2023-03-21T09:31:35;101329.22;;;9.41;100.00
60015;BME280;45867;52.480;6.056;2023-03-21T09:34:00;101314.28;;;9.29;100.00
60015;BME280;45867;52.480;6.056;2023-03-21T09:36:26;101331.34;;;9.39;100.00
60015;BME280;45867;52.480;6.056;2023-03-21T09:38:53;101323.09;;;9.35;100.00
60015;BME280;45867;52.480;6.056;2023-03-21T09:44:07;101329.34;;;9.29;100.00
60015;BME280;45867;52.480;6.056;2023-03-21T09:46:46;101330.41;;;9.28;100.00
60015;BME280;45867;52.480;6.056;2023-03-21T09:49:20;101317.69;;;9.25;100.00
60015;BME280;45867;52.480;6.056;2023-03-21T09:51:53;101331.50;;;9.32;100.00
60015;BME280;45867;52.480;6.056;2023-03-21T09:54:24;101324.38;;;9.32;100.00
60015;BME280;45867;52.480;6.056;2023-03-21T09:56:54;101330.34;;;9.23;100.00
60015;BME280;45867;52.480;6.056;2023-03-21T09:59:36;101327.03;;;9.32;100.00
60015;BME280;45867;52.480;6.056;2023-03-21T10:02:25;101316.13;;;9.29;100.00
60015;BME280;45867;52.480;6.056;2023-03-21T10:05:00;101318.06;;;9.33;100.00
60015;BME280;45867;52.480;6.056;2023-03-21T10:07:28;101319.72;;;9.40;100.00
60015;BME280;45867;52.480;6.056;2023-03-21T10:09:58;101297.41;;;9.30;100.00
60015;BME280;45867;52.480;6.056;2023-03-21T10:12:26;101293.13;;;9.29;100.00
60015;BME280;45867;52.480;6.056;2023-03-21T10:14:58;101304.56;;;9.57;100.00
60015;BME280;45867;52.480;6.056;2023-03-21T10:17:34;101297.19;;;9.59;100.00
60015;BME280;45867;52.480;6.056;2023-03-21T10:20:15;101300.56;;;9.54;100.00
60015;BME280;45867;52.480;6.056;2023-03-21T10:22:42;101296.50;;;9.69;100.00
60015;BME280;45867;52.480;6.056;2023-03-21T10:25:13;101290.84;;;9.82;100.00
60015;BME280;45867;52.480;6.056;2023-03-21T10:27:39;101285.84;;;9.86;100.00
60015;BME280;45867;52.480;6.056;2023-03-21T10:30:07;101270.28;;;9.94;100.00
60015;BME280;45867;52.480;6.056;2023-03-21T10:32:35;101282.47;;;9.95;100.00
60015;BME280;45867;52.480;6.056;2023-03-21T10:35:01;101274.69;;;10.11;100.00
60015;BME280;45867;52.480;6.056;2023-03-21T10:37:29;101285.38;;;10.21;100.00
60015;BME280;45867;52.480;6.056;2023-03-21T10:39:56;101286.75;;;10.61;100.00
60015;BME280;45867;52.480;6.056;2023-03-21T10:42:27;101274.91;;;10.74;100.00
60015;BME280;45867;52.480;6.056;2023-03-21T10:44:55;101267.56;;;10.86;100.00
60015;BME280;45867;52.480;6.056;2023-03-21T10:47:30;101276.38;;;10.97;100.00
60015;BME280;45867;52.480;6.056;2023-03-21T10:50:05;101259.75;;;11.11;100.00
60015;BME280;45867;52.480;6.056;2023-03-21T10:52:31;101253.59;;;11.01;100.00
60015;BME280;45867;52.480;6.056;2023-03-21T10:55:22;101268.72;;;11.05;100.00
60015;BME280;45867;52.480;6.056;2023-03-21T10:57:59;101262.56;;;10.95;100.00
60015;BME280;45867;52.480;6.056;2023-03-21T11:00:29;101253.66;;;11.16;100.00
60015;BME280;45867;52.480;6.056;2023-03-21T11:02:58;101256.31;;;11.16;100.00
60015;BME280;45867;52.480;6.056;2023-03-21T11:05:37;101260.47;;;11.02;100.00
60015;BME280;45867;52.480;6.056;2023-03-21T11:08:05;101255.63;;;10.83;100.00
60015;BME280;45867;52.480;6.056;2023-03-21T11:10:37;101242.69;;;10.92;100.00
60015;BME280;45867;52.480;6.056;2023-03-21T11:13:12;101245.81;;;10.84;100.00
60015;BME280;45867;52.480;6.056;2023-03-21T11:15:50;101241.34;;;10.89;100.00
60015;BME280;45867;52.480;6.056;2023-03-21T11:18:21;101238.97;;;10.93;100.00
60015;BME280;45867;52.480;6.056;2023-03-21T11:23:18;101231.75;;;11.62;100.00
60015;BME280;45867;52.480;6.056;2023-03-21T11:25:47;101220.00;;;11.32;100.00
60015;BME280;45867;52.480;6.056;2023-03-21T11:28:17;101228.91;;;11.89;100.00
60015;BME280;45867;52.480;6.056;2023-03-21T11:30:57;101237.69;;;12.25;100.00
60015;BME280;45867;52.480;6.056;2023-03-21T11:33:31;101231.47;;;12.81;100.00
60015;BME280;45867;52.480;6.056;2023-03-21T11:38:42;101227.16;;;12.95;100.00
60015;BME280;45867;52.480;6.056;2023-03-21T11:41:21;101227.69;;;12.92;100.00
60015;BME280;45867;52.480;6.056;2023-03-21T11:43:52;101209.19;;;12.51;100.00
60015;BME280;45867;52.480;6.056;2023-03-21T11:46:26;101223.28;;;12.52;100.00
60015;BME280;45867;52.480;6.056;2023-03-21T11:48:52;101228.38;;;12.12;100.00
60015;BME280;45867;52.480;6.056;2023-03-21T11:56:46;101227.50;;;11.55;100.00
60015;BME280;45867;52.480;6.056;2023-03-21T11:59:34;101230.16;;;11.55;100.00
60015;BME280;45867;52.480;6.056;2023-03-21T12:02:19;101220.84;;;11.43;100.00
60015;BME280;45867;52.480;6.056;2023-03-21T12:04:55;101217.38;;;11.37;100.00
60015;BME280;45867;52.480;6.056;2023-03-21T12:15:49;101214.22;;;11.50;100.00
60015;BME280;45867;52.480;6.056;2023-03-21T12:23:38;101191.47;;;11.95;100.00
60015;BME280;45867;52.480;6.056;2023-03-21T12:26:21;101186.94;;;12.16;100.00
60015;BME280;45867;52.480;6.056;2023-03-21T12:45:49;101177.13;;;12.12;100.00
60015;BME280;45867;52.480;6.056;2023-03-21T12:48:26;101181.91;;;12.10;100.00
60015;BME280;45867;52.480;6.056;2023-03-21T12:50:53;101181.34;;;12.23;100.00
60015;BME280;45867;52.480;6.056;2023-03-21T12:55:49;101176.59;;;12.10;100.00
60015;BME280;45867;52.480;6.056;2023-03-21T12:58:21;101172.31;;;11.83;100.00
60015;BME280;45867;52.480;6.056;2023-03-21T13:00:55;101172.59;;;12.12;100.00
60015;BME280;45867;52.480;6.056;2023-03-21T13:03:29;101162.22;;;12.11;100.00
60015;BME280;45867;52.480;6.056;2023-03-21T13:05:58;101161.16;;;12.22;100.00
60015;BME280;45867;52.480;6.056;2023-03-21T13:08:30;101145.47;;;12.31;100.00
60015;BME280;45867;52.480;6.056;2023-03-21T13:10:59;101145.50;;;12.15;100.00
60015;BME280;45867;52.480;6.056;2023-03-21T13:16:20;101145.50;;;12.15;100.00
60015;BME280;45867;52.480;6.056;2023-03-21T13:19:18;101153.19;;;12.22;100.00
60015;BME280;45867;52.480;6.056;2023-03-21T13:27:27;101127.16;;;13.39;100.00
60015;BME280;45867;52.480;6.056;2023-03-21T13:32:42;101117.97;;;13.89;100.00
60015;BME280;45867;52.480;6.056;2023-03-21T13:35:18;101107.91;;;14.10;100.00
60015;BME280;45867;52.480;6.056;2023-03-21T13:38:04;101121.75;;;15.03;100.00
60015;BME280;45867;52.480;6.056;2023-03-21T13:40:37;101127.56;;;14.86;100.00
60015;BME280;45867;52.480;6.056;2023-03-21T13:43:34;101131.53;;;15.27;100.00
60015;BME280;45867;52.480;6.056;2023-03-21T13:46:33;101117.19;;;15.23;100.00
60015;BME280;45867;52.480;6.056;2023-03-21T13:49:01;101115.00;;;15.44;100.00
60015;BME280;45867;52.480;6.056;2023-03-21T13:51:56;101107.78;;;14.20;100.00
60015;BME280;45867;52.480;6.056;2023-03-21T13:57:05;101094.59;;;13.81;100.00
60015;BME280;45867;52.480;6.056;2023-03-21T13:59:38;101107.06;;;13.86;100.00
60015;BME280;45867;52.480;6.056;2023-03-21T14:04:54;101098.44;;;15.28;100.00
60015;BME280;45867;52.480;6.056;2023-03-21T14:07:27;101103.09;;;14.36;100.00
60015;BME280;45867;52.480;6.056;2023-03-21T14:09:56;101092.66;;;13.92;100.00
60015;BME280;45867;52.480;6.056;2023-03-21T14:12:27;101089.97;;;13.63;100.00
60015;BME280;45867;52.480;6.056;2023-03-21T14:15:04;101076.53;;;13.78;100.00
60015;BME280;45867;52.480;6.056;2023-03-21T14:17:32;101083.34;;;13.89;100.00
60015;BME280;45867;52.480;6.056;2023-03-21T14:20:05;101082.47;;;13.70;100.00
60015;BME280;45867;52.480;6.056;2023-03-21T14:22:37;101060.72;;;13.58;100.00
60015;BME280;45867;52.480;6.056;2023-03-21T14:25:07;101059.66;;;13.59;100.00
60015;BME280;45867;52.480;6.056;2023-03-21T14:27:33;101055.66;;;13.22;100.00